Cape Elizabeth, ME (04107)

2:08 AM EST on January 31, 2015 (GMT -0500)
Bulldog | Change Station
CLOSE
Current Station
Personal Weather Station
Location: Cape Elizabeth, ME
Elevation: 49 ft
Nearby Weather Stations
Active Advisory: Winter Storm Warning Active Notice: Public Information Statement

Elev 49 ft 43.58 °N, 70.23 °W | Updated 2 minutes ago

Snow
Snow
17.6 °F
Feels Like 10 °F
N
5.0
Wind Variable Wind from North
Gusts 6.0 mph

Today
High -- | Low -- °F
--% Chance of Precip.
Yesterday
High -- | Low -- °F
Precip. -- in
6:58 AM 4:50 PM
Waxing Gibbous, 88% visible
Pressure 29.69 in
Visibility 1.5 miles
Clouds Overcast 4500 ft
Windchill 10 °F
Dew Point 15 °F
Humidity 88%
Rainfall 0.00 in
Snow Depth Not available.
UV 0.0 out of 12
Pollen .10 out of 12
Air Quality Not available.
Flu Activity Not available.
METAR KPWM 310651Z 33022G34KT 1 1/2SM -SN OVC045 M07/M12 A2969 RMK AO2 PK WND 31034/0650 SLP053 P0000 T10721117

More Conditions Fewer Conditions

Pressure 29.69 in
Visibility 1.5 miles
Clouds Overcast 4500 ft
Windchill 10 °F
Dew Point 15 °F
Humidity 88%
Rainfall 0.00 in
Snow Depth Not available.
UV 0.0 out of 12
Pollen .10 out of 12
Air Quality Not available.
Flu Activity Not available.
METAR KPWM 310651Z 33022G34KT 1 1/2SM -SN OVC045 M07/M12 A2969 RMK AO2 PK WND 31034/0650 SLP053 P0000 T10721117

More Conditions Fewer Conditions

10-Day Weather Forecast

Almanac

Astronomy

Jan. 31, 2015 Rise Set
Actual Time
Civil Twilight
Nautical Twilight
Astronomical Twilight
Moon
Length of Visible Light
Length of Day
Tomorrow will be .
, % of the Moon is Illuminated

Today's Extremes

State Highs State Lows

Community

WunderPhotos

Upload Photos

1,792,014 photos uploaded!

WunderBlogs® & News

Nearby

Air Quality

  Air Quality AQ Index Pollutant
Not available.

Snow Depth

Station Depth Elevation

Earthquake Activity

City Distance Mag. Time & Date
Minimum magnitude displayed is 2.5.

Coastal Water Temperatures

Place Temperature

Nearby Weather Stations